KBIX/BIX METAR and TAF weather

Enter ICAO airport designator
Station Type Date Time Source
KBIX METAR 2022/05/23 12:56 UTC NOAA

KBIX 231256Z AUTO 06005KT 10SM FEW150 BKN200 22/21 A3004 RMK AO2 SLP175 T02210209


Station Type Date Time Source
KBIX Decoded METAR 2022/05/23 12:56 UTC NOAA

Keesler Air Force Base / Biloxi, MS, United States (KBIX) 30-25N 088-55W
May 23, 2022 - 08:56 AM EDT / 2022.05.23 1256 UTC
Wind: from the ENE (060 degrees) at 6 MPH (5 KT):0
Visibility: 10 mile(s):0
Sky conditions: mostly cloudy
Temperature: 71.8 F (22.1 C)
Dew Point: 69.6 F (20.9 C)
Relative Humidity: 92%
Pressure (altimeter): 30.04 in. Hg (1017 hPa)
ob: KBIX 231256Z AUTO 06005KT 10SM FEW150 BKN200 22/21 A3004 RMK AO2 SLP175 T02210209
cycle: 13

Station Type Date Time Source
KBIX TAF 2022/05/23 10:58 UTC NOAA

TAF KBIX 231000Z 2310/2416 VRB06KT 9999 VCSH FEW006 SCT025 BKN200 QNH2994INS
TEMPO 2312/2318 8000 -SHRA BKN010
BECMG 2402/2403 12009KT 9999 VCSH SCT015 OVC020 QNH2992INS
TEMPO 2403/2409 VRB15G25KT 4000 TSRA SCT008 OVC015CB TX28/2320Z TN20/2311Z

Example: see airport list